Terminal Aerodrome Forecast
Issued by NWS Billings, MT

Home | Current Version | Previous Version | Text Only | Print | Product List | Glossary Off
Versions: 1 2 3 4 5 6 7 8 9 10 11 12 13 14 15 16 17 18 19 20 21 22 23 24 25 26 27 28 29 30 31 32 33 34 35

000
FTUS45 KBYZ 252321
TAFMLS
TAF
KMLS 252321Z 2600/2624 28019G30KT P6SM SKC
     FM260300 30008KT P6SM SKC
     FM261500 31014KT P6SM FEW050
     FM262000 32016G31KT P6SM FEW050=

USA.gov is the U.S. government's official web portal to all federal, state and local government web resources and services.